createdAt,value
2017-06-03T00:01:06.358Z,4.20
2017-06-03T00:03:33.794Z,4.00
2017-06-03T00:06:01.236Z,3.80
2017-06-03T00:08:29.447Z,4.13
2017-06-03T00:10:56.904Z,3.70
2017-06-03T00:13:24.353Z,3.90
2017-06-03T00:15:51.799Z,3.80
2017-06-03T00:18:19.239Z,4.10
2017-06-03T00:20:47.460Z,4.60
2017-06-03T00:23:14.923Z,4.40
2017-06-03T00:25:42.371Z,4.30
2017-06-03T00:28:09.816Z,4.40
2017-06-03T00:30:37.268Z,3.83
2017-06-03T00:33:04.702Z,4.23
2017-06-03T00:35:32.151Z,3.73
2017-06-03T00:38:00.354Z,4.37
2017-06-03T00:40:27.799Z,4.10
2017-06-03T00:42:55.244Z,3.83
2017-06-03T00:45:22.691Z,4.60
2017-06-03T00:47:50.900Z,3.97
2017-06-03T00:50:18.355Z,3.80
2017-06-03T00:52:45.806Z,4.10
2017-06-03T00:55:13.243Z,4.27
2017-06-03T00:57:40.694Z,4.03
2017-06-03T01:00:08.151Z,4.23
2017-06-03T01:02:35.594Z,4.10
2017-06-03T01:05:03.813Z,4.13
2017-06-03T01:07:31.251Z,3.77
2017-06-03T01:09:58.705Z,4.40
2017-06-03T01:12:26.144Z,4.40
2017-06-03T01:14:54.351Z,3.80
2017-06-03T01:17:21.807Z,3.73
2017-06-03T01:19:49.246Z,3.80
2017-06-03T01:22:16.698Z,3.73
2017-06-03T01:24:44.135Z,3.63
2017-06-03T01:27:12.348Z,3.90
2017-06-03T01:29:39.795Z,3.73
2017-06-03T01:32:07.250Z,3.97
2017-06-03T01:34:34.692Z,3.40
2017-06-03T01:37:02.135Z,3.30
2017-06-03T01:39:29.572Z,3.80
2017-06-03T01:41:57.020Z,3.97
2017-06-03T01:44:24.464Z,3.90
2017-06-03T01:46:51.911Z,4.13
2017-06-03T01:49:19.355Z,3.70
2017-06-03T01:51:46.807Z,3.70
2017-06-03T01:54:14.251Z,3.83
2017-06-03T01:56:41.688Z,4.03
2017-06-03T01:59:09.911Z,3.47
2017-06-03T02:01:37.356Z,3.63
2017-06-03T02:04:04.820Z,3.97
2017-06-03T02:06:32.263Z,4.00
2017-06-03T02:08:59.721Z,3.87
2017-06-03T02:11:27.163Z,4.20
2017-06-03T02:13:54.610Z,4.57
2017-06-03T02:16:22.050Z,4.33
2017-06-03T02:18:51.211Z,4.67
2017-06-03T02:21:18.663Z,4.83
2017-06-03T02:23:46.119Z,4.90
2017-06-03T02:26:13.569Z,4.80
2017-06-03T02:28:41.018Z,5.20
2017-06-03T02:31:08.463Z,5.03
2017-06-03T02:33:35.908Z,5.17
2017-06-03T02:36:03.359Z,4.57
2017-06-03T02:38:30.804Z,4.87
2017-06-03T02:40:58.251Z,5.20
2017-06-03T02:43:25.703Z,5.03
2017-06-03T02:45:53.920Z,5.30
2017-06-03T02:48:21.359Z,5.23
2017-06-03T02:50:48.807Z,4.67
2017-06-03T02:53:16.244Z,5.37
2017-06-03T02:55:44.465Z,5.00
2017-06-03T02:58:11.904Z,5.10
2017-06-03T03:00:39.351Z,5.30
2017-06-03T03:03:06.791Z,5.10
2017-06-03T03:05:35.008Z,5.03
2017-06-03T03:08:02.457Z,4.90
2017-06-03T03:10:29.895Z,5.20
2017-06-03T03:12:57.340Z,5.03
2017-06-03T03:15:24.779Z,5.40
2017-06-03T03:17:52.999Z,5.40
2017-06-03T03:20:20.443Z,4.70
2017-06-03T03:22:47.891Z,5.10
2017-06-03T03:25:15.331Z,4.70
2017-06-03T03:27:43.547Z,5.00
2017-06-03T03:30:10.996Z,4.57
2017-06-03T03:32:38.439Z,4.70
2017-06-03T03:35:05.879Z,4.60
2017-06-03T03:37:33.326Z,5.03
2017-06-03T03:40:01.539Z,5.00
2017-06-03T03:42:28.996Z,4.70
2017-06-03T03:44:56.431Z,4.80
2017-06-03T03:47:23.878Z,4.50
2017-06-03T03:49:51.318Z,4.40
2017-06-03T03:52:19.523Z,5.00
2017-06-03T03:54:46.975Z,5.03
2017-06-03T03:57:14.415Z,4.87
2017-06-03T03:59:42.631Z,5.10
2017-06-03T04:02:10.079Z,4.87
2017-06-03T04:04:37.522Z,5.40
2017-06-03T04:07:04.963Z,4.80
2017-06-03T04:09:32.402Z,4.80
2017-06-03T04:12:00.607Z,4.80
2017-06-03T04:14:28.051Z,4.70
2017-06-03T04:16:55.499Z,4.67
2017-06-03T04:19:23.707Z,5.23
2017-06-03T04:21:51.146Z,4.90
2017-06-03T04:24:18.607Z,4.63
2017-06-03T04:26:46.055Z,5.60
2017-06-03T04:29:14.275Z,5.33
2017-06-03T04:31:41.719Z,5.97
2017-06-03T04:34:09.164Z,6.40
2017-06-03T04:36:36.608Z,6.80
2017-06-03T04:39:04.822Z,7.00
2017-06-03T04:41:32.274Z,7.03
2017-06-03T04:43:59.723Z,7.13
2017-06-03T04:46:27.162Z,6.90
2017-06-03T04:48:54.603Z,7.63
2017-06-03T04:51:22.815Z,7.60
2017-06-03T04:53:50.258Z,7.30
2017-06-03T04:56:17.709Z,7.13
2017-06-03T04:58:45.155Z,7.93
2017-06-03T05:01:13.372Z,7.67
2017-06-03T05:03:40.807Z,7.77
2017-06-03T05:06:08.251Z,8.63
2017-06-03T05:08:35.687Z,8.07
2017-06-03T05:11:03.131Z,7.67
2017-06-03T05:13:30.569Z,8.20
2017-06-03T05:15:58.027Z,7.30
2017-06-03T05:18:25.462Z,7.87
2017-06-03T05:20:52.908Z,6.90
2017-06-03T05:23:20.358Z,7.00
2017-06-03T05:25:47.796Z,7.53
2017-06-03T05:28:16.007Z,7.90
2017-06-03T05:30:43.446Z,7.27
2017-06-03T05:33:10.896Z,7.27
2017-06-03T05:35:38.335Z,7.23
2017-06-03T05:38:06.547Z,7.03
2017-06-03T05:40:33.990Z,6.90
2017-06-03T05:43:01.434Z,6.40
2017-06-03T05:45:28.871Z,5.90
2017-06-03T05:47:57.087Z,6.40
2017-06-03T05:50:24.531Z,7.03
2017-06-03T05:52:51.999Z,5.13
2017-06-03T05:55:19.454Z,5.07
2017-06-03T05:57:46.898Z,5.33
2017-06-03T06:00:14.344Z,5.23
2017-06-03T06:02:41.782Z,5.13
2017-06-03T06:05:09.999Z,4.90
2017-06-03T06:07:37.462Z,4.80
2017-06-03T06:10:04.901Z,5.47
2017-06-03T06:12:32.348Z,6.17
2017-06-03T06:14:59.791Z,5.10
2017-06-03T06:17:27.235Z,5.50
2017-06-03T06:19:54.694Z,5.83
2017-06-03T06:22:22.132Z,4.50
2017-06-03T06:24:49.571Z,4.60
2017-06-03T06:27:17.019Z,4.80
2017-06-03T06:29:44.471Z,5.03
2017-06-03T06:32:12.691Z,4.47
2017-06-03T06:34:40.147Z,5.43
2017-06-03T06:37:07.600Z,5.73
2017-06-03T06:39:35.043Z,5.20
2017-06-03T06:42:02.495Z,5.20
2017-06-03T06:44:29.931Z,4.70
2017-06-03T06:46:58.144Z,5.73
2017-06-03T06:49:25.583Z,5.00
2017-06-03T06:51:53.022Z,5.10
2017-06-03T06:54:20.474Z,5.23
2017-06-03T06:56:47.915Z,5.07
2017-06-03T06:59:16.447Z,5.13
2017-06-03T07:01:43.908Z,4.80
2017-06-03T07:04:11.359Z,4.40
2017-06-03T07:06:38.808Z,4.80
2017-06-03T07:09:06.251Z,5.20
2017-06-03T07:11:33.692Z,5.20
2017-06-03T07:14:01.912Z,5.30
2017-06-03T07:16:29.355Z,5.00
2017-06-03T07:18:56.831Z,5.10
2017-06-03T07:21:24.268Z,5.07
2017-06-03T07:23:51.711Z,5.10
2017-06-03T07:26:19.164Z,5.03
2017-06-03T07:28:46.606Z,5.20
2017-06-03T07:31:14.051Z,5.30
2017-06-03T07:33:41.488Z,4.90
2017-06-03T07:36:08.943Z,5.30
2017-06-03T07:38:36.391Z,5.13
2017-06-03T07:41:03.839Z,5.43
2017-06-03T07:43:31.283Z,6.00
2017-06-03T07:45:58.731Z,5.30
2017-06-03T07:48:26.188Z,5.37
2017-06-03T07:50:53.618Z,5.73
2017-06-03T07:53:21.066Z,6.10
2017-06-03T07:55:48.506Z,5.87
2017-06-03T07:58:15.954Z,5.73
2017-06-03T08:00:43.404Z,6.00
2017-06-03T08:03:10.855Z,6.47
2017-06-03T08:05:38.303Z,6.33
2017-06-03T08:08:05.751Z,5.57
2017-06-03T08:10:33.211Z,5.53
2017-06-03T08:13:00.653Z,5.37
2017-06-03T08:15:28.110Z,5.47
2017-06-03T08:17:55.563Z,5.27
2017-06-03T08:20:23.017Z,5.07
2017-06-03T08:22:50.464Z,5.63
2017-06-03T08:25:17.907Z,6.10
2017-06-03T08:27:45.347Z,6.20
2017-06-03T08:30:13.561Z,5.80
2017-06-03T08:32:40.998Z,5.43
2017-06-03T08:35:08.467Z,5.70
2017-06-03T08:37:35.912Z,5.30
2017-06-03T08:40:03.359Z,6.27
2017-06-03T08:42:30.803Z,5.73
2017-06-03T08:44:59.011Z,5.93
2017-06-03T08:47:26.467Z,6.10
2017-06-03T08:49:53.911Z,6.07
2017-06-03T08:52:21.355Z,6.27
2017-06-03T08:54:48.795Z,6.03
2017-06-03T08:57:17.007Z,5.60
2017-06-03T08:59:44.458Z,6.67
2017-06-03T09:02:11.899Z,6.27
2017-06-03T09:04:39.350Z,5.60
2017-06-03T09:07:06.807Z,5.90
2017-06-03T09:09:34.247Z,5.93
2017-06-03T09:12:01.735Z,6.10
2017-06-03T09:14:29.176Z,6.40
2017-06-03T09:16:56.618Z,6.13
2017-06-03T09:19:24.066Z,5.90
2017-06-03T09:21:51.518Z,6.53
2017-06-03T09:24:18.966Z,6.70
2017-06-03T09:26:46.407Z,6.60
2017-06-03T09:29:14.631Z,5.90
2017-06-03T09:31:42.070Z,5.87
2017-06-03T09:34:09.520Z,5.40
2017-06-03T09:36:36.968Z,5.50
2017-06-03T09:39:05.179Z,4.90
2017-06-03T09:41:32.627Z,5.57
2017-06-03T09:44:00.085Z,5.70
2017-06-03T09:46:27.538Z,5.40
2017-06-03T09:48:54.995Z,6.00
2017-06-03T09:51:22.450Z,9.50
2017-06-03T09:53:49.911Z,10.93
2017-06-03T09:56:17.387Z,5.93
2017-06-03T09:58:44.833Z,6.17
2017-06-03T10:01:12.279Z,6.17
2017-06-03T10:03:39.718Z,5.70
2017-06-03T10:06:07.172Z,5.90
2017-06-03T10:08:34.606Z,8.30
2017-06-03T10:11:02.079Z,6.73
2017-06-03T10:13:29.520Z,7.80
2017-06-03T10:15:57.747Z,11.37
2017-06-03T10:18:25.195Z,25.53
2017-06-03T10:20:52.651Z,14.33
2017-06-03T10:23:20.103Z,11.10
2017-06-03T10:25:47.555Z,5.80
2017-06-03T10:28:14.999Z,5.40
2017-06-03T10:30:42.439Z,5.40
2017-06-03T10:33:09.883Z,4.40
2017-06-03T10:35:38.099Z,5.00
2017-06-03T10:38:05.560Z,5.10
2017-06-03T10:40:33.011Z,4.73
2017-06-03T10:43:00.467Z,4.70
2017-06-03T10:45:27.909Z,4.63
2017-06-03T10:47:55.355Z,4.97
2017-06-03T10:50:22.803Z,5.10
2017-06-03T10:52:50.253Z,4.97
2017-06-03T10:55:18.463Z,4.70
2017-06-03T10:57:45.919Z,4.23
2017-06-03T11:00:13.371Z,4.60
2017-06-03T11:02:40.832Z,4.20
2017-06-03T11:05:08.270Z,5.10
2017-06-03T11:07:35.720Z,4.70
2017-06-03T11:10:03.167Z,4.60
2017-06-03T11:12:30.608Z,5.60
2017-06-03T11:14:58.831Z,5.67
2017-06-03T11:17:26.274Z,6.13
2017-06-03T11:19:53.720Z,6.40
2017-06-03T11:22:21.160Z,5.83
2017-06-03T11:24:49.380Z,6.07
2017-06-03T11:27:16.829Z,5.73
2017-06-03T11:29:44.287Z,5.30
2017-06-03T11:32:11.723Z,6.20
2017-06-03T11:34:39.175Z,6.00
2017-06-03T11:37:06.615Z,5.70
2017-06-03T11:39:34.839Z,5.67
2017-06-03T11:42:02.287Z,5.83
2017-06-03T11:44:29.744Z,5.70
2017-06-03T11:46:57.198Z,6.33
2017-06-03T11:49:24.640Z,5.60
2017-06-03T11:51:52.083Z,5.60
2017-06-03T11:54:19.515Z,5.83
2017-06-03T11:56:46.964Z,6.07
2017-06-03T11:59:14.403Z,6.03
2017-06-03T12:01:41.852Z,6.20
2017-06-03T12:04:09.299Z,6.03
2017-06-03T12:06:36.747Z,5.93
2017-06-03T12:09:04.967Z,5.80
2017-06-03T12:11:32.416Z,6.00
2017-06-03T12:13:59.856Z,5.93
2017-06-03T12:16:27.303Z,5.97
2017-06-03T12:18:54.743Z,6.57
2017-06-03T12:21:22.198Z,6.93
2017-06-03T12:23:49.644Z,6.80
2017-06-03T12:26:17.091Z,6.00
2017-06-03T12:28:45.328Z,6.20
2017-06-03T12:31:12.780Z,5.60
2017-06-03T12:33:40.219Z,5.60
2017-06-03T12:36:07.663Z,5.80
2017-06-03T12:38:35.110Z,6.87
2017-06-03T12:41:02.551Z,6.83
2017-06-03T12:43:30.007Z,6.63
2017-06-03T12:45:58.211Z,6.60
2017-06-03T12:48:25.668Z,5.90
2017-06-03T12:50:53.111Z,6.27
2017-06-03T12:53:20.556Z,5.47
2017-06-03T12:55:47.995Z,5.40
2017-06-03T12:58:15.451Z,5.57
2017-06-03T13:00:42.896Z,5.57
2017-06-03T13:03:10.352Z,6.20
2017-06-03T13:05:37.807Z,5.00
2017-06-03T13:08:05.279Z,5.60
2017-06-03T13:10:32.719Z,6.30
2017-06-03T13:13:00.164Z,6.03
2017-06-03T13:15:27.615Z,5.77
2017-06-03T13:17:55.062Z,7.30
2017-06-03T13:20:22.516Z,6.20
2017-06-03T13:22:49.968Z,6.10
2017-06-03T13:25:18.175Z,6.07
2017-06-03T13:27:45.619Z,6.17
2017-06-03T13:30:13.064Z,5.77
2017-06-03T13:32:40.515Z,6.03
2017-06-03T13:35:07.970Z,6.40
2017-06-03T13:37:35.419Z,5.77
2017-06-03T13:40:03.639Z,5.30
2017-06-03T13:42:31.083Z,6.30
2017-06-03T13:44:58.543Z,5.40
2017-06-03T13:47:25.982Z,5.80
2017-06-03T13:49:53.454Z,5.53
2017-06-03T13:52:20.903Z,5.60
2017-06-03T13:54:48.344Z,5.60
2017-06-03T13:57:15.853Z,5.47
2017-06-03T13:59:43.296Z,6.17
2017-06-03T14:02:10.748Z,6.50
2017-06-03T14:04:38.191Z,7.47
2017-06-03T14:07:05.651Z,6.60
2017-06-03T14:09:33.103Z,6.10
2017-06-03T14:12:00.558Z,6.00
2017-06-03T14:14:28.003Z,7.13
2017-06-03T14:16:55.451Z,6.20
2017-06-03T14:19:22.891Z,6.70
2017-06-03T14:21:51.104Z,6.63
2017-06-03T14:24:18.542Z,7.13
2017-06-03T14:26:46.016Z,7.20
2017-06-03T14:29:13.452Z,6.77
2017-06-03T14:31:40.886Z,6.90
2017-06-03T14:34:09.103Z,6.30
2017-06-03T14:36:36.555Z,7.00
2017-06-03T14:39:04.016Z,7.10
2017-06-03T14:41:31.454Z,6.50
2017-06-03T14:43:58.908Z,6.50
2017-06-03T14:46:26.344Z,6.57
2017-06-03T14:48:54.556Z,6.90
2017-06-03T14:51:22.011Z,6.80
2017-06-03T14:53:49.467Z,6.47
2017-06-03T14:56:16.924Z,6.77
2017-06-03T14:58:44.367Z,6.70
2017-06-03T15:01:11.811Z,6.90
2017-06-03T15:03:39.266Z,8.03
2017-06-03T15:06:06.711Z,6.27
2017-06-03T15:08:34.920Z,6.30
2017-06-03T15:11:02.401Z,6.50
2017-06-03T15:13:29.845Z,7.90
2017-06-03T15:15:57.303Z,7.20
2017-06-03T15:18:24.751Z,7.80
2017-06-03T15:20:52.213Z,6.93
2017-06-03T15:23:19.651Z,9.20
2017-06-03T15:25:47.100Z,8.33
2017-06-03T15:28:14.543Z,8.80
2017-06-03T15:30:42.765Z,8.10
2017-06-03T15:33:10.211Z,5.20
2017-06-03T15:35:37.671Z,4.80
2017-06-03T15:38:05.127Z,7.43
2017-06-03T15:40:32.582Z,7.97
2017-06-03T15:43:00.041Z,7.20
2017-06-03T15:45:27.500Z,7.83
2017-06-03T15:47:54.935Z,6.80
2017-06-03T15:50:22.407Z,6.87
2017-06-03T15:52:49.861Z,7.00
2017-06-03T15:55:17.293Z,6.53
2017-06-03T15:57:44.744Z,6.80
2017-06-03T16:00:12.183Z,6.93
2017-06-03T16:02:40.408Z,7.37
2017-06-03T16:05:07.847Z,7.23
2017-06-03T16:07:35.296Z,7.10
2017-06-03T16:10:02.739Z,6.00
2017-06-03T16:12:30.196Z,5.93
2017-06-03T16:14:57.639Z,6.60
2017-06-03T16:17:25.863Z,7.20
2017-06-03T16:19:53.321Z,6.60
2017-06-03T16:22:20.770Z,6.60
2017-06-03T16:24:48.215Z,7.77
2017-06-03T16:27:15.662Z,8.30
2017-06-03T16:29:43.128Z,8.00
2017-06-03T16:32:10.567Z,7.90
2017-06-03T16:34:38.023Z,7.27
2017-06-03T16:37:05.475Z,7.67
2017-06-03T16:39:33.707Z,7.30
2017-06-03T16:42:01.163Z,6.90
2017-06-03T16:44:28.619Z,6.93
2017-06-03T16:46:56.067Z,7.43
2017-06-03T16:49:23.519Z,7.10
2017-06-03T16:51:50.964Z,7.13
2017-06-03T16:54:18.423Z,6.87
2017-06-03T16:56:45.864Z,7.60
2017-06-03T16:59:13.331Z,6.90
2017-06-03T17:01:40.782Z,8.47
2017-06-03T17:04:08.223Z,7.27
2017-06-03T17:06:35.679Z,7.10
2017-06-03T17:09:03.115Z,6.90
2017-06-03T17:11:31.340Z,6.70
2017-06-03T17:13:58.783Z,6.80
2017-06-03T17:16:26.227Z,6.53
2017-06-03T17:18:53.671Z,6.33
2017-06-03T17:21:21.883Z,7.30
2017-06-03T17:23:49.340Z,6.90
2017-06-03T17:26:16.795Z,7.57
2017-06-03T17:28:44.245Z,7.70
2017-06-03T17:31:11.711Z,8.40
2017-06-03T17:33:39.163Z,7.33
2017-06-03T17:36:06.608Z,7.10
2017-06-03T17:38:34.055Z,8.20
2017-06-03T17:41:01.497Z,7.83
2017-06-03T17:43:28.944Z,7.73
2017-06-03T17:45:57.163Z,9.40
2017-06-03T17:48:24.618Z,9.13
2017-06-03T17:50:52.074Z,8.03
2017-06-03T17:53:19.525Z,7.93
2017-06-03T17:55:46.970Z,9.40
2017-06-03T17:58:14.417Z,10.60
2017-06-03T18:00:41.887Z,9.40
2017-06-03T18:03:09.349Z,13.53
2017-06-03T18:05:36.796Z,10.27
2017-06-03T18:08:04.251Z,8.70
2017-06-03T18:10:31.696Z,9.70
2017-06-03T18:12:59.148Z,7.87
2017-06-03T18:15:26.587Z,7.60
2017-06-03T18:17:54.064Z,6.40
2017-06-03T18:20:21.507Z,6.60
2017-06-03T18:22:49.723Z,6.37
2017-06-03T18:25:17.180Z,6.63
2017-06-03T18:27:44.623Z,7.50
2017-06-03T18:30:12.079Z,6.83
2017-06-03T18:32:39.520Z,6.87
2017-06-03T18:35:06.971Z,6.83
2017-06-03T18:37:34.411Z,6.20
2017-06-03T18:40:02.631Z,6.67
2017-06-03T18:42:30.083Z,7.97
2017-06-03T18:44:57.522Z,7.17
2017-06-03T18:47:24.967Z,7.17
2017-06-03T18:49:53.175Z,7.50
2017-06-03T18:52:20.615Z,7.73
2017-06-03T18:54:48.051Z,7.60
2017-06-03T18:57:15.500Z,7.07
2017-06-03T18:59:43.719Z,6.40
2017-06-03T19:02:11.175Z,5.33
2017-06-03T19:04:38.616Z,5.73
2017-06-03T19:07:09.915Z,5.50
2017-06-03T19:09:37.361Z,5.40
2017-06-03T19:12:04.799Z,5.03
2017-06-03T19:14:32.247Z,5.50
2017-06-03T19:16:59.699Z,5.10
2017-06-03T19:19:27.150Z,5.40
2017-06-03T19:21:54.595Z,5.47
2017-06-03T19:24:22.042Z,5.20
2017-06-03T19:26:49.487Z,5.50
2017-06-03T19:29:16.931Z,5.47
2017-06-03T19:31:45.157Z,5.83
2017-06-03T19:34:12.609Z,5.67
2017-06-03T19:36:40.043Z,5.43
2017-06-03T19:39:07.491Z,5.93
2017-06-03T19:41:34.931Z,5.40
2017-06-03T19:44:03.158Z,5.70
2017-06-03T19:46:30.610Z,5.43
2017-06-03T19:48:58.067Z,6.10
2017-06-03T19:51:25.507Z,5.73
2017-06-03T19:53:52.950Z,6.43
2017-06-03T19:56:20.387Z,5.90
2017-06-03T19:58:48.611Z,5.30
2017-06-03T20:01:16.047Z,5.30
2017-06-03T20:03:43.519Z,5.07
2017-06-03T20:06:10.962Z,4.60
2017-06-03T20:08:38.404Z,4.70
2017-06-03T20:11:05.846Z,4.50
2017-06-03T20:13:34.063Z,4.40
2017-06-03T20:16:01.515Z,4.10
2017-06-03T20:18:28.959Z,4.50
2017-06-03T20:20:56.410Z,4.17
2017-06-03T20:23:23.855Z,3.80
2017-06-03T20:25:52.076Z,4.30
2017-06-03T20:28:19.515Z,3.90
2017-06-03T20:30:46.971Z,3.93
2017-06-03T20:33:14.415Z,3.80
2017-06-03T20:35:41.863Z,4.00
2017-06-03T20:38:09.303Z,4.00
2017-06-03T20:40:37.548Z,4.43
2017-06-03T20:43:04.997Z,3.90
2017-06-03T20:45:32.440Z,4.30
2017-06-03T20:47:59.895Z,4.13
2017-06-03T20:50:27.340Z,4.27
2017-06-03T20:52:54.795Z,3.80
2017-06-03T20:55:22.235Z,3.93
2017-06-03T20:57:49.683Z,4.20
2017-06-03T21:00:17.127Z,4.40
2017-06-03T21:02:45.343Z,4.33
2017-06-03T21:05:12.795Z,5.03
2017-06-03T21:07:40.264Z,4.40
2017-06-03T21:10:07.702Z,4.33
2017-06-03T21:12:35.147Z,4.87
2017-06-03T21:15:02.601Z,4.40
2017-06-03T21:17:30.039Z,3.90
2017-06-03T21:19:58.247Z,4.40
2017-06-03T21:22:25.696Z,4.50
2017-06-03T21:24:53.138Z,4.47
2017-06-03T21:27:20.578Z,4.30
2017-06-03T21:29:48.787Z,4.10
2017-06-03T21:32:16.249Z,3.90
2017-06-03T21:34:43.707Z,4.10
2017-06-03T21:37:11.143Z,4.07
2017-06-03T21:39:38.666Z,4.23
2017-06-03T21:42:06.103Z,4.10
2017-06-03T21:44:33.547Z,3.53
2017-06-03T21:47:00.995Z,4.43
2017-06-03T21:49:28.439Z,4.60
2017-06-03T21:51:55.895Z,4.60
2017-06-03T21:54:23.339Z,5.17
2017-06-03T21:56:50.794Z,4.37
2017-06-03T21:59:18.238Z,4.17
2017-06-03T22:01:45.688Z,4.60
2017-06-03T22:04:13.891Z,5.20
2017-06-03T22:06:41.343Z,4.60
2017-06-03T22:09:08.784Z,4.40
2017-06-03T22:11:36.227Z,3.80
2017-06-03T22:14:03.673Z,4.40
2017-06-03T22:16:31.116Z,3.57
2017-06-03T22:18:58.562Z,3.53
2017-06-03T22:21:26.007Z,3.60
2017-06-03T22:23:53.458Z,2.90
2017-06-03T22:26:20.903Z,3.33
2017-06-03T22:28:48.347Z,2.70
2017-06-03T22:31:15.786Z,3.40
2017-06-03T22:33:44.024Z,2.97
2017-06-03T22:36:11.471Z,3.10
2017-06-03T22:38:38.914Z,3.47
2017-06-03T22:41:06.368Z,3.10
2017-06-03T22:43:33.820Z,3.17
2017-06-03T22:46:01.267Z,3.20
2017-06-03T22:48:28.699Z,3.80
2017-06-03T22:50:56.913Z,3.30
2017-06-03T22:53:24.356Z,3.90
2017-06-03T22:55:51.799Z,4.63
2017-06-03T22:58:19.244Z,4.00
2017-06-03T23:00:47.456Z,4.33
2017-06-03T23:03:14.894Z,4.90
2017-06-03T23:05:42.370Z,4.73
2017-06-03T23:08:09.820Z,4.90
2017-06-03T23:10:37.272Z,4.90
2017-06-03T23:13:04.712Z,5.70
2017-06-03T23:15:32.151Z,4.80
2017-06-03T23:18:00.367Z,5.33
2017-06-03T23:20:27.818Z,4.90
2017-06-03T23:22:55.275Z,5.17
2017-06-03T23:25:22.714Z,5.43
2017-06-03T23:27:50.163Z,5.30
2017-06-03T23:30:17.602Z,4.80
2017-06-03T23:32:45.068Z,6.20
2017-06-03T23:35:12.512Z,5.07
2017-06-03T23:37:40.724Z,5.07
2017-06-03T23:40:08.171Z,5.00
2017-06-03T23:42:35.611Z,4.30
2017-06-03T23:45:03.827Z,5.03
2017-06-03T23:47:31.270Z,4.70
2017-06-03T23:49:58.731Z,5.27
2017-06-03T23:52:26.178Z,5.00
2017-06-03T23:54:53.627Z,5.80
2017-06-03T23:57:21.066Z,4.60
2017-06-03T23:59:48.514Z,5.47
